Terminal Aerodrome Forecast
Issued by NWS Sterling, VA

Home | Current Version | Previous Version | Text Only | Print | Product List | Glossary On
Versions: 1 2 3 4 5 6 7 8 9 10 11 12 13 14 15
961
FTUS41 KLWX 070522
TAFCHO
TAF
KCHO 070522Z 0706/0806 VRB03KT P6SM BKN200
     FM071500 03005KT P6SM BKN200
     FM072300 VRB03KT P6SM BKN200=

USA.gov is the U.S. government's official web portal to all federal, state and local government web resources and services.